sensor_id;sensor_type;location;lat;lon;timestamp;pressure;altitude;pressure_sealevel;temperature;humidity
47274;BME280;33007;49.082;19.306;2022-08-23T00:00:29;95724.50;;;16.46;100.00
47274;BME280;33007;49.082;19.306;2022-08-23T00:02:54;95746.75;;;16.61;100.00
47274;BME280;33007;49.082;19.306;2022-08-23T00:05:21;95703.34;;;16.41;100.00
47274;BME280;33007;49.082;19.306;2022-08-23T00:07:46;95709.97;;;16.51;100.00
47274;BME280;33007;49.082;19.306;2022-08-23T00:10:14;95737.28;;;16.62;100.00
47274;BME280;33007;49.082;19.306;2022-08-23T00:12:41;95713.84;;;16.37;100.00
47274;BME280;33007;49.082;19.306;2022-08-23T00:15:09;95725.06;;;16.33;100.00
47274;BME280;33007;49.082;19.306;2022-08-23T00:17:36;95724.06;;;16.36;100.00
47274;BME280;33007;49.082;19.306;2022-08-23T00:20:07;95698.97;;;16.27;100.00
47274;BME280;33007;49.082;19.306;2022-08-23T00:22:34;95747.38;;;16.48;100.00
47274;BME280;33007;49.082;19.306;2022-08-23T00:25:00;95728.81;;;16.36;100.00
47274;BME280;33007;49.082;19.306;2022-08-23T00:27:25;95713.16;;;16.31;100.00
47274;BME280;33007;49.082;19.306;2022-08-23T00:29:53;95728.75;;;16.41;100.00
47274;BME280;33007;49.082;19.306;2022-08-23T00:32:24;95702.28;;;16.19;100.00
47274;BME280;33007;49.082;19.306;2022-08-23T00:34:50;95706.03;;;16.16;100.00
47274;BME280;33007;49.082;19.306;2022-08-23T00:37:18;95755.63;;;16.43;100.00
47274;BME280;33007;49.082;19.306;2022-08-23T00:39:44;95717.16;;;16.24;100.00
47274;BME280;33007;49.082;19.306;2022-08-23T00:42:36;95757.81;;;16.50;100.00
47274;BME280;33007;49.082;19.306;2022-08-23T00:45:38;95740.16;;;16.45;100.00
47274;BME280;33007;49.082;19.306;2022-08-23T00:48:24;95730.09;;;16.29;100.00
47274;BME280;33007;49.082;19.306;2022-08-23T00:51:02;95752.16;;;16.42;100.00
47274;BME280;33007;49.082;19.306;2022-08-23T00:53:36;95766.03;;;16.50;100.00
47274;BME280;33007;49.082;19.306;2022-08-23T00:56:05;95732.81;;;16.29;100.00
47274;BME280;33007;49.082;19.306;2022-08-23T00:58:31;95721.47;;;16.19;100.00
47274;BME280;33007;49.082;19.306;2022-08-23T01:00:59;95748.13;;;16.49;100.00
47274;BME280;33007;49.082;19.306;2022-08-23T01:03:28;95755.72;;;16.62;100.00
47274;BME280;33007;49.082;19.306;2022-08-23T01:06:19;95759.91;;;16.68;100.00
47274;BME280;33007;49.082;19.306;2022-08-23T01:08:56;95767.16;;;16.66;100.00
47274;BME280;33007;49.082;19.306;2022-08-23T01:14:11;95744.59;;;16.54;100.00
47274;BME280;33007;49.082;19.306;2022-08-23T01:16:57;95751.97;;;16.65;100.00
47274;BME280;33007;49.082;19.306;2022-08-23T01:19:29;95737.38;;;16.51;100.00
47274;BME280;33007;49.082;19.306;2022-08-23T01:24:46;95767.41;;;16.68;100.00
47274;BME280;33007;49.082;19.306;2022-08-23T01:27:12;95735.63;;;16.54;100.00
47274;BME280;33007;49.082;19.306;2022-08-23T01:29:39;95778.38;;;16.68;100.00
47274;BME280;33007;49.082;19.306;2022-08-23T01:32:07;95783.84;;;16.68;100.00
47274;BME280;33007;49.082;19.306;2022-08-23T01:34:33;95776.69;;;16.59;100.00
47274;BME280;33007;49.082;19.306;2022-08-23T01:37:03;95770.56;;;16.47;100.00
47274;BME280;33007;49.082;19.306;2022-08-23T01:39:30;95753.38;;;16.47;100.00
47274;BME280;33007;49.082;19.306;2022-08-23T01:41:55;95750.34;;;16.50;100.00
47274;BME280;33007;49.082;19.306;2022-08-23T01:44:21;95767.19;;;16.60;100.00
47274;BME280;33007;49.082;19.306;2022-08-23T01:46:47;95768.50;;;16.54;100.00
47274;BME280;33007;49.082;19.306;2022-08-23T01:49:12;95764.47;;;16.30;100.00
47274;BME280;33007;49.082;19.306;2022-08-23T01:51:38;95754.34;;;16.19;100.00
47274;BME280;33007;49.082;19.306;2022-08-23T01:54:04;95787.47;;;16.52;100.00
47274;BME280;33007;49.082;19.306;2022-08-23T01:56:31;95769.59;;;16.39;100.00
47274;BME280;33007;49.082;19.306;2022-08-23T01:58:58;95787.50;;;16.46;100.00
47274;BME280;33007;49.082;19.306;2022-08-23T02:01:24;95784.53;;;16.44;100.00
47274;BME280;33007;49.082;19.306;2022-08-23T02:03:49;95770.13;;;16.38;100.00
47274;BME280;33007;49.082;19.306;2022-08-23T02:06:15;95794.97;;;16.45;100.00
47274;BME280;33007;49.082;19.306;2022-08-23T02:08:40;95772.25;;;16.20;100.00
47274;BME280;33007;49.082;19.306;2022-08-23T02:11:25;95794.03;;;16.37;100.00
47274;BME280;33007;49.082;19.306;2022-08-23T02:13:53;95773.78;;;16.16;100.00
47274;BME280;33007;49.082;19.306;2022-08-23T02:16:34;95760.59;;;16.14;100.00
47274;BME280;33007;49.082;19.306;2022-08-23T02:19:00;95795.34;;;16.31;100.00
47274;BME280;33007;49.082;19.306;2022-08-23T02:21:28;95786.69;;;16.21;100.00
47274;BME280;33007;49.082;19.306;2022-08-23T02:23:58;95802.81;;;16.30;100.00
47274;BME280;33007;49.082;19.306;2022-08-23T02:26:24;95798.34;;;16.27;100.00
47274;BME280;33007;49.082;19.306;2022-08-23T02:28:51;95787.16;;;16.25;100.00
47274;BME280;33007;49.082;19.306;2022-08-23T02:31:18;95787.66;;;16.23;100.00
47274;BME280;33007;49.082;19.306;2022-08-23T02:33:44;95777.53;;;16.13;100.00
47274;BME280;33007;49.082;19.306;2022-08-23T02:36:09;95782.78;;;16.11;100.00
47274;BME280;33007;49.082;19.306;2022-08-23T02:38:35;95777.56;;;16.07;100.00
47274;BME280;33007;49.082;19.306;2022-08-23T02:41:00;95734.00;;;15.68;100.00
47274;BME280;33007;49.082;19.306;2022-08-23T02:43:26;95803.13;;;16.21;100.00
47274;BME280;33007;49.082;19.306;2022-08-23T02:45:51;95785.00;;;16.12;100.00
47274;BME280;33007;49.082;19.306;2022-08-23T02:48:17;95813.53;;;16.28;100.00
47274;BME280;33007;49.082;19.306;2022-08-23T02:50:42;95800.66;;;16.17;100.00
47274;BME280;33007;49.082;19.306;2022-08-23T02:53:08;95787.53;;;16.05;100.00
47274;BME280;33007;49.082;19.306;2022-08-23T02:55:34;95766.19;;;15.92;100.00
47274;BME280;33007;49.082;19.306;2022-08-23T02:57:59;95801.31;;;16.29;100.00
47274;BME280;33007;49.082;19.306;2022-08-23T03:00:25;95822.34;;;16.51;100.00
47274;BME280;33007;49.082;19.306;2022-08-23T03:02:51;95812.19;;;16.46;100.00
47274;BME280;33007;49.082;19.306;2022-08-23T03:05:16;95827.00;;;16.62;100.00
47274;BME280;33007;49.082;19.306;2022-08-23T03:07:42;95802.66;;;16.53;100.00
47274;BME280;33007;49.082;19.306;2022-08-23T03:10:08;95827.47;;;16.66;100.00
47274;BME280;33007;49.082;19.306;2022-08-23T03:12:34;95801.19;;;16.52;100.00
47274;BME280;33007;49.082;19.306;2022-08-23T03:14:59;95807.00;;;16.37;100.00
47274;BME280;33007;49.082;19.306;2022-08-23T03:17:26;95782.22;;;16.18;100.00
47274;BME280;33007;49.082;19.306;2022-08-23T03:19:51;95789.97;;;16.14;100.00
47274;BME280;33007;49.082;19.306;2022-08-23T03:22:17;95795.16;;;16.17;100.00
47274;BME280;33007;49.082;19.306;2022-08-23T03:24:43;95804.09;;;16.23;100.00
47274;BME280;33007;49.082;19.306;2022-08-23T03:27:09;95831.19;;;16.33;100.00
47274;BME280;33007;49.082;19.306;2022-08-23T03:29:35;95818.78;;;16.26;100.00
47274;BME280;33007;49.082;19.306;2022-08-23T03:32:01;95792.50;;;16.06;100.00
47274;BME280;33007;49.082;19.306;2022-08-23T03:34:27;95816.81;;;16.21;100.00
47274;BME280;33007;49.082;19.306;2022-08-23T03:36:53;95789.81;;;16.01;100.00
47274;BME280;33007;49.082;19.306;2022-08-23T03:39:20;95811.84;;;16.19;100.00
47274;BME280;33007;49.082;19.306;2022-08-23T03:41:46;95818.13;;;16.14;100.00
47274;BME280;33007;49.082;19.306;2022-08-23T03:44:11;95825.31;;;16.17;100.00
47274;BME280;33007;49.082;19.306;2022-08-23T03:46:37;95816.16;;;16.09;100.00
47274;BME280;33007;49.082;19.306;2022-08-23T03:49:03;95839.94;;;16.31;100.00
47274;BME280;33007;49.082;19.306;2022-08-23T03:51:30;95859.53;;;16.41;100.00
47274;BME280;33007;49.082;19.306;2022-08-23T03:53:56;95857.03;;;16.43;100.00
47274;BME280;33007;49.082;19.306;2022-08-23T03:56:24;95821.03;;;16.22;100.00
47274;BME280;33007;49.082;19.306;2022-08-23T03:58:50;95827.75;;;16.27;100.00
47274;BME280;33007;49.082;19.306;2022-08-23T04:01:16;95804.66;;;16.16;100.00
47274;BME280;33007;49.082;19.306;2022-08-23T04:03:41;95809.88;;;16.20;100.00
47274;BME280;33007;49.082;19.306;2022-08-23T04:06:08;95864.00;;;16.44;100.00
47274;BME280;33007;49.082;19.306;2022-08-23T04:08:34;95841.41;;;16.32;100.00
47274;BME280;33007;49.082;19.306;2022-08-23T04:11:00;95861.78;;;16.42;100.00
47274;BME280;33007;49.082;19.306;2022-08-23T04:13:26;95838.63;;;16.38;100.00
47274;BME280;33007;49.082;19.306;2022-08-23T04:15:54;95820.78;;;16.26;100.00
47274;BME280;33007;49.082;19.306;2022-08-23T04:18:19;95836.19;;;16.29;100.00
47274;BME280;33007;49.082;19.306;2022-08-23T04:20:46;95824.53;;;16.22;100.00
47274;BME280;33007;49.082;19.306;2022-08-23T04:23:11;95844.88;;;16.33;100.00
47274;BME280;33007;49.082;19.306;2022-08-23T04:25:36;95814.84;;;16.16;100.00
47274;BME280;33007;49.082;19.306;2022-08-23T04:28:03;95859.47;;;16.52;100.00
47274;BME280;33007;49.082;19.306;2022-08-23T04:30:30;95784.06;;;16.04;100.00
47274;BME280;33007;49.082;19.306;2022-08-23T04:32:56;95841.25;;;16.55;100.00
47274;BME280;33007;49.082;19.306;2022-08-23T04:35:22;95842.47;;;16.59;100.00
47274;BME280;33007;49.082;19.306;2022-08-23T04:37:49;95811.25;;;16.32;100.00
47274;BME280;33007;49.082;19.306;2022-08-23T04:40:15;95820.72;;;16.37;100.00
47274;BME280;33007;49.082;19.306;2022-08-23T04:42:59;95851.63;;;16.67;100.00
47274;BME280;33007;49.082;19.306;2022-08-23T04:45:25;95834.81;;;16.52;100.00
47274;BME280;33007;49.082;19.306;2022-08-23T04:47:51;95823.63;;;16.44;100.00
47274;BME280;33007;49.082;19.306;2022-08-23T04:50:17;95841.81;;;16.47;100.00
47274;BME280;33007;49.082;19.306;2022-08-23T04:52:43;95817.75;;;16.29;100.00
47274;BME280;33007;49.082;19.306;2022-08-23T04:55:09;95841.03;;;16.53;100.00
47274;BME280;33007;49.082;19.306;2022-08-23T04:57:35;95868.56;;;16.71;100.00
47274;BME280;33007;49.082;19.306;2022-08-23T05:00:01;95858.06;;;16.75;100.00
47274;BME280;33007;49.082;19.306;2022-08-23T05:02:26;95857.63;;;16.66;100.00
47274;BME280;33007;49.082;19.306;2022-08-23T05:04:52;95849.91;;;16.64;100.00
47274;BME280;33007;49.082;19.306;2022-08-23T05:07:18;95856.13;;;16.65;100.00
47274;BME280;33007;49.082;19.306;2022-08-23T05:09:43;95844.38;;;16.70;100.00
47274;BME280;33007;49.082;19.306;2022-08-23T05:12:10;95838.91;;;16.70;100.00
47274;BME280;33007;49.082;19.306;2022-08-23T05:14:35;95840.44;;;16.65;100.00
47274;BME280;33007;49.082;19.306;2022-08-23T05:17:01;95863.97;;;16.85;100.00
47274;BME280;33007;49.082;19.306;2022-08-23T05:19:26;95850.38;;;16.74;100.00
47274;BME280;33007;49.082;19.306;2022-08-23T05:21:52;95827.53;;;16.55;100.00
47274;BME280;33007;49.082;19.306;2022-08-23T05:24:17;95814.88;;;16.52;100.00
47274;BME280;33007;49.082;19.306;2022-08-23T05:26:43;95835.94;;;16.68;100.00
47274;BME280;33007;49.082;19.306;2022-08-23T05:29:08;95848.38;;;16.74;100.00
47274;BME280;33007;49.082;19.306;2022-08-23T05:31:34;95850.31;;;16.80;100.00
47274;BME280;33007;49.082;19.306;2022-08-23T05:33:59;95843.41;;;16.67;100.00
47274;BME280;33007;49.082;19.306;2022-08-23T05:36:25;95864.03;;;16.80;100.00
47274;BME280;33007;49.082;19.306;2022-08-23T05:38:51;95869.25;;;16.83;100.00
47274;BME280;33007;49.082;19.306;2022-08-23T05:41:17;95865.25;;;16.84;100.00
47274;BME280;33007;49.082;19.306;2022-08-23T05:43:44;95859.06;;;16.78;100.00
47274;BME280;33007;49.082;19.306;2022-08-23T05:46:12;95881.09;;;16.97;100.00
47274;BME280;33007;49.082;19.306;2022-08-23T05:48:39;95787.31;;;16.38;100.00
47274;BME280;33007;49.082;19.306;2022-08-23T05:51:15;95895.41;;;17.14;100.00
47274;BME280;33007;49.082;19.306;2022-08-23T05:53:42;95889.41;;;17.16;100.00
47274;BME280;33007;49.082;19.306;2022-08-23T05:56:22;95901.56;;;17.20;100.00
47274;BME280;33007;49.082;19.306;2022-08-23T05:58:52;95881.47;;;17.12;100.00
47274;BME280;33007;49.082;19.306;2022-08-23T06:01:18;95903.50;;;17.31;100.00
47274;BME280;33007;49.082;19.306;2022-08-23T06:03:44;95872.44;;;17.17;100.00
47274;BME280;33007;49.082;19.306;2022-08-23T06:06:11;95917.91;;;17.37;100.00
47274;BME280;33007;49.082;19.306;2022-08-23T06:08:38;95880.44;;;17.15;100.00
47274;BME280;33007;49.082;19.306;2022-08-23T06:11:13;95912.66;;;17.39;100.00
47274;BME280;33007;49.082;19.306;2022-08-23T06:13:48;95913.38;;;17.40;100.00
47274;BME280;33007;49.082;19.306;2022-08-23T06:16:16;95882.16;;;17.18;100.00
47274;BME280;33007;49.082;19.306;2022-08-23T06:18:43;95921.81;;;17.47;100.00
47274;BME280;33007;49.082;19.306;2022-08-23T06:21:11;95918.88;;;17.40;100.00
47274;BME280;33007;49.082;19.306;2022-08-23T06:23:38;95903.50;;;17.31;100.00
47274;BME280;33007;49.082;19.306;2022-08-23T06:26:21;95897.03;;;17.28;100.00
47274;BME280;33007;49.082;19.306;2022-08-23T06:28:49;95921.44;;;17.57;100.00
47274;BME280;33007;49.082;19.306;2022-08-23T06:31:16;95892.22;;;17.35;100.00
47274;BME280;33007;49.082;19.306;2022-08-23T06:34:01;95919.84;;;17.67;100.00
47274;BME280;33007;49.082;19.306;2022-08-23T06:36:27;95903.97;;;17.60;100.00
47274;BME280;33007;49.082;19.306;2022-08-23T06:38:53;95894.53;;;17.55;100.00
47274;BME280;33007;49.082;19.306;2022-08-23T06:41:19;95894.69;;;17.63;100.00
47274;BME280;33007;49.082;19.306;2022-08-23T06:43:44;95910.59;;;17.70;100.00
47274;BME280;33007;49.082;19.306;2022-08-23T06:46:19;95941.31;;;17.93;100.00
47274;BME280;33007;49.082;19.306;2022-08-23T06:48:49;95906.13;;;17.67;100.00
47274;BME280;33007;49.082;19.306;2022-08-23T06:53:43;95928.00;;;17.78;100.00
47274;BME280;33007;49.082;19.306;2022-08-23T06:56:11;95934.41;;;17.86;100.00
47274;BME280;33007;49.082;19.306;2022-08-23T06:58:37;95940.00;;;17.99;100.00
47274;BME280;33007;49.082;19.306;2022-08-23T07:03:44;95946.81;;;18.17;100.00
47274;BME280;33007;49.082;19.306;2022-08-23T07:06:10;95930.38;;;18.12;100.00
47274;BME280;33007;49.082;19.306;2022-08-23T07:08:36;95967.31;;;18.35;100.00
47274;BME280;33007;49.082;19.306;2022-08-23T07:11:03;95960.06;;;18.38;100.00
47274;BME280;33007;49.082;19.306;2022-08-23T07:13:29;95927.72;;;18.25;100.00
47274;BME280;33007;49.082;19.306;2022-08-23T07:15:58;95961.59;;;18.52;100.00
47274;BME280;33007;49.082;19.306;2022-08-23T07:18:24;95964.28;;;18.57;100.00
47274;BME280;33007;49.082;19.306;2022-08-23T07:20:55;95950.16;;;18.48;100.00
47274;BME280;33007;49.082;19.306;2022-08-23T07:23:21;95948.16;;;18.48;100.00
47274;BME280;33007;49.082;19.306;2022-08-23T07:25:46;95956.94;;;18.66;100.00
47274;BME280;33007;49.082;19.306;2022-08-23T07:28:12;95965.50;;;18.81;100.00
47274;BME280;33007;49.082;19.306;2022-08-23T07:30:38;95960.81;;;18.76;100.00
47274;BME280;33007;49.082;19.306;2022-08-23T07:33:03;95943.03;;;18.58;100.00
47274;BME280;33007;49.082;19.306;2022-08-23T07:35:30;95933.97;;;18.63;100.00
47274;BME280;33007;49.082;19.306;2022-08-23T07:37:56;95939.69;;;18.65;100.00
47274;BME280;33007;49.082;19.306;2022-08-23T07:40:22;95944.09;;;18.74;100.00
47274;BME280;33007;49.082;19.306;2022-08-23T07:42:47;95952.03;;;18.77;100.00
47274;BME280;33007;49.082;19.306;2022-08-23T07:45:13;95958.50;;;18.80;100.00
47274;BME280;33007;49.082;19.306;2022-08-23T07:47:39;95967.72;;;18.82;100.00
47274;BME280;33007;49.082;19.306;2022-08-23T07:50:07;95988.66;;;19.04;100.00
47274;BME280;33007;49.082;19.306;2022-08-23T07:52:33;95985.69;;;19.02;98.48
47274;BME280;33007;49.082;19.306;2022-08-23T07:54:59;95978.84;;;19.09;98.75
47274;BME280;33007;49.082;19.306;2022-08-23T07:57:26;95987.47;;;19.19;98.13
47274;BME280;33007;49.082;19.306;2022-08-23T07:59:51;95953.34;;;19.08;98.35
47274;BME280;33007;49.082;19.306;2022-08-23T08:02:17;95956.63;;;19.07;92.80
47274;BME280;33007;49.082;19.306;2022-08-23T08:04:42;95919.16;;;18.85;96.04
47274;BME280;33007;49.082;19.306;2022-08-23T08:07:08;95974.06;;;19.28;92.01
47274;BME280;33007;49.082;19.306;2022-08-23T08:09:34;95956.34;;;19.24;95.38
47274;BME280;33007;49.082;19.306;2022-08-23T08:11:59;95952.69;;;19.34;94.46
47274;BME280;33007;49.082;19.306;2022-08-23T08:14:25;95929.56;;;19.24;96.15
47274;BME280;33007;49.082;19.306;2022-08-23T08:16:50;95938.19;;;19.34;93.90
47274;BME280;33007;49.082;19.306;2022-08-23T08:19:17;95965.88;;;19.55;91.57
47274;BME280;33007;49.082;19.306;2022-08-23T08:21:44;95952.59;;;19.53;94.22
47274;BME280;33007;49.082;19.306;2022-08-23T08:24:12;95941.25;;;19.44;93.45
47274;BME280;33007;49.082;19.306;2022-08-23T08:26:40;95979.78;;;19.76;92.84
47274;BME280;33007;49.082;19.306;2022-08-23T08:29:05;95974.06;;;19.74;88.85
47274;BME280;33007;49.082;19.306;2022-08-23T08:31:32;95945.97;;;19.62;91.27
47274;BME280;33007;49.082;19.306;2022-08-23T08:33:58;95975.34;;;19.86;91.91
47274;BME280;33007;49.082;19.306;2022-08-23T08:38:52;95972.72;;;19.94;90.28
47274;BME280;33007;49.082;19.306;2022-08-23T08:44:55;95975.66;;;20.22;90.38
47274;BME280;33007;49.082;19.306;2022-08-23T08:47:39;95987.31;;;20.28;88.71
47274;BME280;33007;49.082;19.306;2022-08-23T08:52:36;95951.81;;;20.25;89.01
47274;BME280;33007;49.082;19.306;2022-08-23T08:55:11;95987.66;;;20.51;89.50
47274;BME280;33007;49.082;19.306;2022-08-23T08:57:44;95954.88;;;20.34;89.08
47274;BME280;33007;49.082;19.306;2022-08-23T09:00:13;95951.47;;;20.28;88.35
47274;BME280;33007;49.082;19.306;2022-08-23T09:02:40;95986.44;;;20.73;87.64
47274;BME280;33007;49.082;19.306;2022-08-23T09:05:13;95987.06;;;20.79;88.75
47274;BME280;33007;49.082;19.306;2022-08-23T09:16:36;95967.94;;;21.15;86.52
47274;BME280;33007;49.082;19.306;2022-08-23T09:19:04;95965.56;;;21.19;84.28
47274;BME280;33007;49.082;19.306;2022-08-23T09:21:37;95973.84;;;21.33;86.04
47274;BME280;33007;49.082;19.306;2022-08-23T09:24:05;95943.69;;;21.22;87.41
47274;BME280;33007;49.082;19.306;2022-08-23T09:26:30;95956.78;;;21.42;85.68
47274;BME280;33007;49.082;19.306;2022-08-23T09:31:46;95937.25;;;21.40;84.17
47274;BME280;33007;49.082;19.306;2022-08-23T09:34:22;95964.22;;;21.76;83.84
47274;BME280;33007;49.082;19.306;2022-08-23T09:39:45;95942.22;;;21.91;84.95
47274;BME280;33007;49.082;19.306;2022-08-23T09:42:35;95953.84;;;21.89;83.32
47274;BME280;33007;49.082;19.306;2022-08-23T09:45:05;95965.72;;;22.05;81.72
47274;BME280;33007;49.082;19.306;2022-08-23T09:47:35;95960.66;;;22.17;85.74
47274;BME280;33007;49.082;19.306;2022-08-23T09:50:26;95940.53;;;21.88;78.50
47274;BME280;33007;49.082;19.306;2022-08-23T09:53:05;95963.78;;;22.21;80.74
47274;BME280;33007;49.082;19.306;2022-08-23T09:55:35;95957.03;;;22.30;79.89
47274;BME280;33007;49.082;19.306;2022-08-23T09:58:05;95953.75;;;22.39;81.39
47274;BME280;33007;49.082;19.306;2022-08-23T10:00:34;95938.44;;;22.38;81.55
47274;BME280;33007;49.082;19.306;2022-08-23T10:03:23;95965.66;;;22.62;81.83
47274;BME280;33007;49.082;19.306;2022-08-23T10:05:52;95954.06;;;22.64;78.09
47274;BME280;33007;49.082;19.306;2022-08-23T10:08:27;95938.88;;;22.57;78.85
47274;BME280;33007;49.082;19.306;2022-08-23T10:10:57;95961.63;;;22.71;81.39
47274;BME280;33007;49.082;19.306;2022-08-23T10:13:26;95944.41;;;22.57;76.46
47274;BME280;33007;49.082;19.306;2022-08-23T10:16:15;95965.13;;;22.79;76.51
47274;BME280;33007;49.082;19.306;2022-08-23T10:26:31;95939.25;;;23.13;74.69
47274;BME280;33007;49.082;19.306;2022-08-23T10:29:06;95930.94;;;23.20;74.26
47274;BME280;33007;49.082;19.306;2022-08-23T10:34:56;95955.16;;;23.50;70.59
47274;BME280;33007;49.082;19.306;2022-08-23T10:37:45;95941.66;;;23.47;71.97
47274;BME280;33007;49.082;19.306;2022-08-23T10:40:24;95938.88;;;23.47;69.76
47274;BME280;33007;49.082;19.306;2022-08-23T10:45:37;95922.06;;;23.75;68.77
47274;BME280;33007;49.082;19.306;2022-08-23T10:51:00;95961.34;;;24.27;68.21
47274;BME280;33007;49.082;19.306;2022-08-23T10:53:42;95958.59;;;24.35;69.73
47274;BME280;33007;49.082;19.306;2022-08-23T10:56:17;95961.78;;;24.64;67.50
47274;BME280;33007;49.082;19.306;2022-08-23T10:58:52;95918.81;;;24.40;66.20
47274;BME280;33007;49.082;19.306;2022-08-23T11:01:24;95901.81;;;24.36;66.36
47274;BME280;33007;49.082;19.306;2022-08-23T11:06:44;95951.88;;;24.86;65.67
47274;BME280;33007;49.082;19.306;2022-08-23T11:14:36;95952.53;;;25.34;64.95
47274;BME280;33007;49.082;19.306;2022-08-23T11:17:51;95947.47;;;25.41;65.15
47274;BME280;33007;49.082;19.306;2022-08-23T11:20:11;95935.31;;;25.36;63.66
47274;BME280;33007;49.082;19.306;2022-08-23T11:27:46;95913.53;;;25.25;62.85
47274;BME280;33007;49.082;19.306;2022-08-23T11:33:07;95944.66;;;25.48;61.48
47274;BME280;33007;49.082;19.306;2022-08-23T11:38:05;95907.22;;;25.49;61.51
47274;BME280;33007;49.082;19.306;2022-08-23T11:40:54;95925.72;;;25.72;59.46
47274;BME280;33007;49.082;19.306;2022-08-23T11:43:33;95946.44;;;26.21;60.54
47274;BME280;33007;49.082;19.306;2022-08-23T11:46:29;95944.88;;;26.27;60.61
47274;BME280;33007;49.082;19.306;2022-08-23T11:54:19;95946.84;;;26.00;60.26
47274;BME280;33007;49.082;19.306;2022-08-23T11:56:57;95941.06;;;25.80;60.33
47274;BME280;33007;49.082;19.306;2022-08-23T12:02:32;95944.69;;;25.66;63.70
47274;BME280;33007;49.082;19.306;2022-08-23T12:05:04;95924.81;;;25.27;62.05
47274;BME280;33007;49.082;19.306;2022-08-23T12:07:44;95955.38;;;25.52;66.15
47274;BME280;33007;49.082;19.306;2022-08-23T12:10:10;95931.44;;;25.31;66.67
47274;BME280;33007;49.082;19.306;2022-08-23T12:12:39;95926.13;;;25.26;64.47
47274;BME280;33007;49.082;19.306;2022-08-23T12:15:09;95907.22;;;25.24;67.86
47274;BME280;33007;49.082;19.306;2022-08-23T12:22:59;95882.47;;;25.61;64.57
47274;BME280;33007;49.082;19.306;2022-08-23T12:25:27;95948.06;;;26.06;63.94
47274;BME280;33007;49.082;19.306;2022-08-23T12:28:01;95947.91;;;26.22;63.96
47274;BME280;33007;49.082;19.306;2022-08-23T12:30:37;95917.38;;;26.14;64.21
47274;BME280;33007;49.082;19.306;2022-08-23T12:33:17;95967.69;;;26.60;61.41
47274;BME280;33007;49.082;19.306;2022-08-23T12:35:52;95955.91;;;26.52;62.61
47274;BME280;33007;49.082;19.306;2022-08-23T12:38:40;95960.84;;;26.88;63.11
47274;BME280;33007;49.082;19.306;2022-08-23T12:41:25;95927.75;;;26.93;58.53
47274;BME280;33007;49.082;19.306;2022-08-23T12:44:02;95956.22;;;27.18;57.37
47274;BME280;33007;49.082;19.306;2022-08-23T12:46:43;95948.50;;;27.36;57.18
47274;BME280;33007;49.082;19.306;2022-08-23T12:49:23;95931.94;;;27.38;56.44
47274;BME280;33007;49.082;19.306;2022-08-23T12:51:51;95955.81;;;27.68;55.76
47274;BME280;33007;49.082;19.306;2022-08-23T12:54:32;95950.44;;;27.89;54.85
47274;BME280;33007;49.082;19.306;2022-08-23T12:56:59;95921.84;;;27.52;54.05
47274;BME280;33007;49.082;19.306;2022-08-23T12:59:51;95937.25;;;27.53;54.93
47274;BME280;33007;49.082;19.306;2022-08-23T13:02:30;95906.97;;;27.30;55.82
47274;BME280;33007;49.082;19.306;2022-08-23T13:05:11;95935.41;;;27.65;54.81
47274;BME280;33007;49.082;19.306;2022-08-23T13:07:40;95958.53;;;28.05;53.62
47274;BME280;33007;49.082;19.306;2022-08-23T13:10:07;95942.25;;;27.91;54.28
47274;BME280;33007;49.082;19.306;2022-08-23T13:12:34;95943.59;;;28.19;52.61
47274;BME280;33007;49.082;19.306;2022-08-23T13:15:00;95931.22;;;28.23;53.25
47274;BME280;33007;49.082;19.306;2022-08-23T13:17:34;95956.69;;;28.56;52.95
47274;BME280;33007;49.082;19.306;2022-08-23T13:20:12;95946.25;;;28.56;51.80
47274;BME280;33007;49.082;19.306;2022-08-23T13:23:03;95951.97;;;28.78;51.84
47274;BME280;33007;49.082;19.306;2022-08-23T13:25:35;95947.84;;;28.79;51.63
47274;BME280;33007;49.082;19.306;2022-08-23T13:28:05;95946.94;;;28.76;51.65
47274;BME280;33007;49.082;19.306;2022-08-23T13:30:36;95951.94;;;28.87;50.95
47274;BME280;33007;49.082;19.306;2022-08-23T13:35:41;95938.00;;;28.78;50.40
47274;BME280;33007;49.082;19.306;2022-08-23T13:41:02;95924.88;;;28.90;49.58
47274;BME280;33007;49.082;19.306;2022-08-23T13:43:48;95927.25;;;28.93;49.12
47274;BME280;33007;49.082;19.306;2022-08-23T13:49:04;95930.50;;;28.32;50.48
47274;BME280;33007;49.082;19.306;2022-08-23T13:51:35;95932.25;;;27.98;52.81
47274;BME280;33007;49.082;19.306;2022-08-23T13:54:06;95932.38;;;27.81;51.37
47274;BME280;33007;49.082;19.306;2022-08-23T13:56:59;95951.19;;;27.90;52.73
47274;BME280;33007;49.082;19.306;2022-08-23T13:59:33;95946.41;;;28.39;52.48
47274;BME280;33007;49.082;19.306;2022-08-23T14:02:02;95941.53;;;28.49;50.68
47274;BME280;33007;49.082;19.306;2022-08-23T14:04:28;95940.06;;;28.67;50.47
47274;BME280;33007;49.082;19.306;2022-08-23T14:06:57;95909.78;;;28.54;50.46
47274;BME280;33007;49.082;19.306;2022-08-23T14:09:23;95892.06;;;28.40;50.68
47274;BME280;33007;49.082;19.306;2022-08-23T14:11:52;95912.03;;;28.36;47.65
47274;BME280;33007;49.082;19.306;2022-08-23T14:14:19;95918.94;;;28.35;50.06
47274;BME280;33007;49.082;19.306;2022-08-23T14:16:45;95925.53;;;28.30;48.45
47274;BME280;33007;49.082;19.306;2022-08-23T14:19:10;95940.66;;;28.66;50.30
47274;BME280;33007;49.082;19.306;2022-08-23T14:21:37;95852.09;;;28.37;51.31
47274;BME280;33007;49.082;19.306;2022-08-23T14:24:03;95919.91;;;28.69;49.25
47274;BME280;33007;49.082;19.306;2022-08-23T14:26:29;95918.22;;;28.44;48.42